sensor_id;sensor_type;location;lat;lon;timestamp;P1;durP1;ratioP1;P2;durP2;ratioP2
10882;SDS011;5494;51.796;10.952;2024-01-16T00:01:44;2.97;;;0.85;;
10882;SDS011;5494;51.796;10.952;2024-01-16T00:04:13;2.20;;;0.63;;
10882;SDS011;5494;51.796;10.952;2024-01-16T00:06:41;1.48;;;0.70;;
10882;SDS011;5494;51.796;10.952;2024-01-16T00:09:13;5.47;;;0.90;;
10882;SDS011;5494;51.796;10.952;2024-01-16T00:11:41;2.67;;;0.90;;
10882;SDS011;5494;51.796;10.952;2024-01-16T00:14:12;2.35;;;1.02;;
10882;SDS011;5494;51.796;10.952;2024-01-16T00:16:43;0.77;;;0.70;;
10882;SDS011;5494;51.796;10.952;2024-01-16T00:19:12;2.75;;;0.80;;
10882;SDS011;5494;51.796;10.952;2024-01-16T00:21:40;3.50;;;0.80;;
10882;SDS011;5494;51.796;10.952;2024-01-16T00:24:09;2.33;;;0.70;;
10882;SDS011;5494;51.796;10.952;2024-01-16T00:26:37;3.03;;;1.08;;
10882;SDS011;5494;51.796;10.952;2024-01-16T00:29:05;1.00;;;0.73;;
10882;SDS011;5494;51.796;10.952;2024-01-16T00:31:36;3.13;;;0.90;;
10882;SDS011;5494;51.796;10.952;2024-01-16T00:34:04;3.15;;;0.80;;
10882;SDS011;5494;51.796;10.952;2024-01-16T00:36:32;1.92;;;0.50;;
10882;SDS011;5494;51.796;10.952;2024-01-16T00:39:00;3.08;;;0.80;;
10882;SDS011;5494;51.796;10.952;2024-01-16T00:41:29;2.40;;;0.82;;
10882;SDS011;5494;51.796;10.952;2024-01-16T00:43:57;0.75;;;0.70;;
10882;SDS011;5494;51.796;10.952;2024-01-16T00:46:25;1.00;;;0.60;;
10882;SDS011;5494;51.796;10.952;2024-01-16T00:48:54;1.98;;;0.80;;
10882;SDS011;5494;51.796;10.952;2024-01-16T00:51:22;1.70;;;0.73;;
10882;SDS011;5494;51.796;10.952;2024-01-16T00:53:50;1.85;;;0.70;;
10882;SDS011;5494;51.796;10.952;2024-01-16T00:56:18;1.92;;;0.70;;
10882;SDS011;5494;51.796;10.952;2024-01-16T00:58:46;1.70;;;0.70;;
10882;SDS011;5494;51.796;10.952;2024-01-16T01:01:14;1.10;;;0.65;;
10882;SDS011;5494;51.796;10.952;2024-01-16T01:03:42;2.38;;;0.68;;
10882;SDS011;5494;51.796;10.952;2024-01-16T01:06:12;2.75;;;0.80;;
10882;SDS011;5494;51.796;10.952;2024-01-16T01:08:40;0.93;;;0.60;;
10882;SDS011;5494;51.796;10.952;2024-01-16T01:11:08;2.78;;;0.65;;
10882;SDS011;5494;51.796;10.952;2024-01-16T01:13:36;0.90;;;0.50;;
10882;SDS011;5494;51.796;10.952;2024-01-16T01:16:04;1.50;;;0.40;;
10882;SDS011;5494;51.796;10.952;2024-01-16T01:18:32;0.45;;;0.40;;
10882;SDS011;5494;51.796;10.952;2024-01-16T01:21:00;1.42;;;0.60;;
10882;SDS011;5494;51.796;10.952;2024-01-16T01:23:29;0.73;;;0.50;;
10882;SDS011;5494;51.796;10.952;2024-01-16T01:25:59;2.70;;;0.63;;
10882;SDS011;5494;51.796;10.952;2024-01-16T01:28:27;2.92;;;0.40;;
10882;SDS011;5494;51.796;10.952;2024-01-16T01:30:55;0.85;;;0.50;;
10882;SDS011;5494;51.796;10.952;2024-01-16T01:33:23;2.63;;;0.80;;
10882;SDS011;5494;51.796;10.952;2024-01-16T01:35:51;1.45;;;0.60;;
10882;SDS011;5494;51.796;10.952;2024-01-16T01:38:20;4.32;;;0.70;;
10882;SDS011;5494;51.796;10.952;2024-01-16T01:40:52;2.63;;;0.90;;
10882;SDS011;5494;51.796;10.952;2024-01-16T01:43:20;1.20;;;0.60;;
10882;SDS011;5494;51.796;10.952;2024-01-16T01:45:54;2.45;;;0.80;;
10882;SDS011;5494;51.796;10.952;2024-01-16T01:48:40;1.20;;;0.70;;
10882;SDS011;5494;51.796;10.952;2024-01-16T01:51:09;1.48;;;0.60;;
10882;SDS011;5494;51.796;10.952;2024-01-16T01:53:43;2.03;;;0.70;;
10882;SDS011;5494;51.796;10.952;2024-01-16T01:56:14;1.00;;;0.47;;
10882;SDS011;5494;51.796;10.952;2024-01-16T01:58:47;1.48;;;0.50;;
10882;SDS011;5494;51.796;10.952;2024-01-16T02:01:19;1.85;;;0.50;;
10882;SDS011;5494;51.796;10.952;2024-01-16T02:03:50;1.23;;;0.38;;
10882;SDS011;5494;51.796;10.952;2024-01-16T02:06:19;2.05;;;0.60;;
10882;SDS011;5494;51.796;10.952;2024-01-16T02:08:47;1.58;;;0.70;;
10882;SDS011;5494;51.796;10.952;2024-01-16T02:11:18;1.13;;;0.60;;
10882;SDS011;5494;51.796;10.952;2024-01-16T02:13:46;0.82;;;0.60;;
10882;SDS011;5494;51.796;10.952;2024-01-16T02:16:17;1.83;;;0.32;;
10882;SDS011;5494;51.796;10.952;2024-01-16T02:18:46;1.60;;;0.40;;
10882;SDS011;5494;51.796;10.952;2024-01-16T02:21:15;1.58;;;0.57;;
10882;SDS011;5494;51.796;10.952;2024-01-16T02:23:49;3.20;;;0.65;;
10882;SDS011;5494;51.796;10.952;2024-01-16T02:26:18;2.28;;;0.57;;
10882;SDS011;5494;51.796;10.952;2024-01-16T02:28:47;2.40;;;0.40;;
10882;SDS011;5494;51.796;10.952;2024-01-16T02:31:15;1.02;;;0.50;;
10882;SDS011;5494;51.796;10.952;2024-01-16T02:33:44;2.35;;;0.40;;
10882;SDS011;5494;51.796;10.952;2024-01-16T02:36:12;1.23;;;0.57;;
10882;SDS011;5494;51.796;10.952;2024-01-16T02:38:40;2.08;;;1.00;;
10882;SDS011;5494;51.796;10.952;2024-01-16T02:41:14;0.63;;;0.43;;
10882;SDS011;5494;51.796;10.952;2024-01-16T02:43:43;3.13;;;0.68;;
10882;SDS011;5494;51.796;10.952;2024-01-16T02:46:12;1.27;;;0.70;;
10882;SDS011;5494;51.796;10.952;2024-01-16T02:48:41;0.80;;;0.57;;
10882;SDS011;5494;51.796;10.952;2024-01-16T02:51:09;1.23;;;0.57;;
10882;SDS011;5494;51.796;10.952;2024-01-16T02:53:38;1.70;;;0.70;;
10882;SDS011;5494;51.796;10.952;2024-01-16T02:56:07;2.25;;;1.00;;
10882;SDS011;5494;51.796;10.952;2024-01-16T02:58:37;3.53;;;0.75;;
10882;SDS011;5494;51.796;10.952;2024-01-16T03:01:05;2.30;;;0.47;;
10882;SDS011;5494;51.796;10.952;2024-01-16T03:03:33;1.20;;;0.57;;
10882;SDS011;5494;51.796;10.952;2024-01-16T03:06:02;2.25;;;0.47;;
10882;SDS011;5494;51.796;10.952;2024-01-16T03:08:31;2.97;;;0.70;;
10882;SDS011;5494;51.796;10.952;2024-01-16T03:10:59;3.20;;;0.95;;
10882;SDS011;5494;51.796;10.952;2024-01-16T03:13:27;1.98;;;0.73;;
10882;SDS011;5494;51.796;10.952;2024-01-16T03:15:56;2.95;;;0.63;;
10882;SDS011;5494;51.796;10.952;2024-01-16T03:18:24;0.93;;;0.50;;
10882;SDS011;5494;51.796;10.952;2024-01-16T03:20:52;2.20;;;0.80;;
10882;SDS011;5494;51.796;10.952;2024-01-16T03:23:20;3.33;;;0.65;;
10882;SDS011;5494;51.796;10.952;2024-01-16T03:25:48;2.38;;;0.80;;
10882;SDS011;5494;51.796;10.952;2024-01-16T03:28:16;1.88;;;0.80;;
10882;SDS011;5494;51.796;10.952;2024-01-16T03:30:44;1.83;;;0.70;;
10882;SDS011;5494;51.796;10.952;2024-01-16T03:33:14;3.03;;;0.80;;
10882;SDS011;5494;51.796;10.952;2024-01-16T03:35:42;4.90;;;0.93;;
10882;SDS011;5494;51.796;10.952;2024-01-16T03:38:09;1.88;;;0.60;;
10882;SDS011;5494;51.796;10.952;2024-01-16T03:40:37;1.27;;;0.90;;
10882;SDS011;5494;51.796;10.952;2024-01-16T03:43:05;2.08;;;0.60;;
10882;SDS011;5494;51.796;10.952;2024-01-16T03:45:34;2.20;;;1.17;;
10882;SDS011;5494;51.796;10.952;2024-01-16T03:48:02;5.03;;;1.00;;
10882;SDS011;5494;51.796;10.952;2024-01-16T03:50:33;3.88;;;1.33;;
10882;SDS011;5494;51.796;10.952;2024-01-16T03:53:02;2.63;;;0.88;;
10882;SDS011;5494;51.796;10.952;2024-01-16T03:55:31;1.95;;;0.98;;
10882;SDS011;5494;51.796;10.952;2024-01-16T03:57:59;0.52;;;0.50;;
10882;SDS011;5494;51.796;10.952;2024-01-16T04:00:27;3.10;;;0.90;;
10882;SDS011;5494;51.796;10.952;2024-01-16T04:02:55;1.13;;;0.52;;
10882;SDS011;5494;51.796;10.952;2024-01-16T04:05:23;6.22;;;0.80;;
10882;SDS011;5494;51.796;10.952;2024-01-16T04:07:53;0.73;;;0.50;;
10882;SDS011;5494;51.796;10.952;2024-01-16T04:10:21;1.85;;;0.50;;
10882;SDS011;5494;51.796;10.952;2024-01-16T04:12:52;1.73;;;0.63;;
10882;SDS011;5494;51.796;10.952;2024-01-16T04:15:20;1.80;;;0.82;;
10882;SDS011;5494;51.796;10.952;2024-01-16T04:17:49;1.00;;;0.50;;
10882;SDS011;5494;51.796;10.952;2024-01-16T04:20:17;1.63;;;0.90;;
10882;SDS011;5494;51.796;10.952;2024-01-16T04:22:45;1.02;;;0.40;;
10882;SDS011;5494;51.796;10.952;2024-01-16T04:25:14;3.88;;;0.70;;
10882;SDS011;5494;51.796;10.952;2024-01-16T04:27:42;1.98;;;0.50;;
10882;SDS011;5494;51.796;10.952;2024-01-16T04:30:11;1.95;;;0.77;;
10882;SDS011;5494;51.796;10.952;2024-01-16T04:32:40;3.60;;;0.60;;
10882;SDS011;5494;51.796;10.952;2024-01-16T04:35:08;3.42;;;0.93;;
10882;SDS011;5494;51.796;10.952;2024-01-16T04:37:37;3.25;;;1.00;;
10882;SDS011;5494;51.796;10.952;2024-01-16T04:40:05;4.82;;;1.73;;
10882;SDS011;5494;51.796;10.952;2024-01-16T04:42:35;3.30;;;0.82;;
10882;SDS011;5494;51.796;10.952;2024-01-16T04:45:03;2.25;;;0.80;;
10882;SDS011;5494;51.796;10.952;2024-01-16T04:47:32;2.65;;;0.77;;
10882;SDS011;5494;51.796;10.952;2024-01-16T04:50:00;2.83;;;0.85;;
10882;SDS011;5494;51.796;10.952;2024-01-16T04:52:30;5.18;;;1.02;;
10882;SDS011;5494;51.796;10.952;2024-01-16T04:54:57;3.70;;;1.05;;
10882;SDS011;5494;51.796;10.952;2024-01-16T04:57:26;2.08;;;0.80;;
10882;SDS011;5494;51.796;10.952;2024-01-16T04:59:55;2.72;;;0.77;;
10882;SDS011;5494;51.796;10.952;2024-01-16T05:02:23;3.35;;;1.42;;
10882;SDS011;5494;51.796;10.952;2024-01-16T05:04:51;2.13;;;0.93;;
10882;SDS011;5494;51.796;10.952;2024-01-16T05:07:19;4.55;;;1.00;;
10882;SDS011;5494;51.796;10.952;2024-01-16T05:09:50;4.30;;;1.45;;
10882;SDS011;5494;51.796;10.952;2024-01-16T05:12:18;4.43;;;1.75;;
10882;SDS011;5494;51.796;10.952;2024-01-16T05:14:48;3.97;;;1.13;;
10882;SDS011;5494;51.796;10.952;2024-01-16T05:17:18;2.80;;;1.33;;
10882;SDS011;5494;51.796;10.952;2024-01-16T05:19:46;4.43;;;1.80;;
10882;SDS011;5494;51.796;10.952;2024-01-16T05:22:14;3.08;;;1.50;;
10882;SDS011;5494;51.796;10.952;2024-01-16T05:24:42;1.88;;;1.00;;
10882;SDS011;5494;51.796;10.952;2024-01-16T05:27:11;3.50;;;1.33;;
10882;SDS011;5494;51.796;10.952;2024-01-16T05:29:40;3.55;;;1.70;;
10882;SDS011;5494;51.796;10.952;2024-01-16T05:32:10;3.53;;;1.38;;
10882;SDS011;5494;51.796;10.952;2024-01-16T05:34:42;4.82;;;1.30;;
10882;SDS011;5494;51.796;10.952;2024-01-16T05:37:10;5.07;;;1.20;;
10882;SDS011;5494;51.796;10.952;2024-01-16T05:39:38;4.20;;;1.33;;
10882;SDS011;5494;51.796;10.952;2024-01-16T05:42:05;9.00;;;1.45;;
10882;SDS011;5494;51.796;10.952;2024-01-16T05:44:34;3.88;;;1.10;;
10882;SDS011;5494;51.796;10.952;2024-01-16T05:47:02;3.60;;;1.10;;
10882;SDS011;5494;51.796;10.952;2024-01-16T05:49:30;1.77;;;1.02;;
10882;SDS011;5494;51.796;10.952;2024-01-16T05:51:59;2.78;;;0.90;;
10882;SDS011;5494;51.796;10.952;2024-01-16T05:54:27;3.35;;;0.98;;
10882;SDS011;5494;51.796;10.952;2024-01-16T05:56:56;4.80;;;1.00;;
10882;SDS011;5494;51.796;10.952;2024-01-16T05:59:24;2.03;;;0.85;;
10882;SDS011;5494;51.796;10.952;2024-01-16T06:01:52;4.38;;;1.13;;
10882;SDS011;5494;51.796;10.952;2024-01-16T06:04:20;4.43;;;1.23;;
10882;SDS011;5494;51.796;10.952;2024-01-16T06:06:48;2.33;;;1.48;;
10882;SDS011;5494;51.796;10.952;2024-01-16T06:09:17;7.50;;;1.30;;
10882;SDS011;5494;51.796;10.952;2024-01-16T06:11:45;2.30;;;1.00;;
10882;SDS011;5494;51.796;10.952;2024-01-16T06:14:14;5.47;;;1.20;;
10882;SDS011;5494;51.796;10.952;2024-01-16T06:16:47;3.28;;;1.10;;
10882;SDS011;5494;51.796;10.952;2024-01-16T06:19:15;1.38;;;0.85;;
10882;SDS011;5494;51.796;10.952;2024-01-16T06:21:44;2.55;;;0.90;;
10882;SDS011;5494;51.796;10.952;2024-01-16T06:24:11;1.85;;;0.90;;
10882;SDS011;5494;51.796;10.952;2024-01-16T06:26:41;4.18;;;1.23;;
10882;SDS011;5494;51.796;10.952;2024-01-16T06:29:10;6.78;;;1.17;;
10882;SDS011;5494;51.796;10.952;2024-01-16T06:31:53;3.85;;;1.60;;
10882;SDS011;5494;51.796;10.952;2024-01-16T06:34:21;4.80;;;1.02;;
10882;SDS011;5494;51.796;10.952;2024-01-16T06:36:50;3.80;;;1.00;;
10882;SDS011;5494;51.796;10.952;2024-01-16T06:39:18;3.17;;;0.98;;
10882;SDS011;5494;51.796;10.952;2024-01-16T06:41:47;3.63;;;1.48;;
10882;SDS011;5494;51.796;10.952;2024-01-16T06:44:15;5.68;;;2.28;;
10882;SDS011;5494;51.796;10.952;2024-01-16T06:46:43;2.70;;;1.30;;
10882;SDS011;5494;51.796;10.952;2024-01-16T06:49:11;3.47;;;1.20;;
10882;SDS011;5494;51.796;10.952;2024-01-16T06:51:40;5.72;;;1.15;;
10882;SDS011;5494;51.796;10.952;2024-01-16T06:54:08;2.40;;;1.02;;
10882;SDS011;5494;51.796;10.952;2024-01-16T06:56:36;3.85;;;1.35;;
10882;SDS011;5494;51.796;10.952;2024-01-16T06:59:05;3.80;;;1.10;;
10882;SDS011;5494;51.796;10.952;2024-01-16T07:01:37;2.83;;;0.93;;
10882;SDS011;5494;51.796;10.952;2024-01-16T07:04:05;3.70;;;1.25;;
10882;SDS011;5494;51.796;10.952;2024-01-16T07:06:34;3.33;;;1.30;;
10882;SDS011;5494;51.796;10.952;2024-01-16T07:09:02;3.30;;;1.38;;
10882;SDS011;5494;51.796;10.952;2024-01-16T07:11:31;2.40;;;1.00;;
10882;SDS011;5494;51.796;10.952;2024-01-16T07:13:59;3.58;;;1.27;;
10882;SDS011;5494;51.796;10.952;2024-01-16T07:16:28;5.28;;;1.80;;
10882;SDS011;5494;51.796;10.952;2024-01-16T07:18:56;3.20;;;1.27;;
10882;SDS011;5494;51.796;10.952;2024-01-16T07:21:26;3.72;;;1.33;;
10882;SDS011;5494;51.796;10.952;2024-01-16T07:23:54;2.05;;;1.35;;
10882;SDS011;5494;51.796;10.952;2024-01-16T07:26:22;3.38;;;1.58;;
10882;SDS011;5494;51.796;10.952;2024-01-16T07:28:51;3.20;;;1.30;;
10882;SDS011;5494;51.796;10.952;2024-01-16T07:31:19;5.00;;;1.50;;
10882;SDS011;5494;51.796;10.952;2024-01-16T07:33:48;5.82;;;1.70;;
10882;SDS011;5494;51.796;10.952;2024-01-16T07:36:17;3.25;;;1.67;;
10882;SDS011;5494;51.796;10.952;2024-01-16T07:38:45;5.18;;;1.40;;
10882;SDS011;5494;51.796;10.952;2024-01-16T07:41:14;3.03;;;1.80;;
10882;SDS011;5494;51.796;10.952;2024-01-16T07:43:42;4.40;;;2.15;;
10882;SDS011;5494;51.796;10.952;2024-01-16T07:46:15;4.28;;;1.80;;
10882;SDS011;5494;51.796;10.952;2024-01-16T07:48:44;3.90;;;1.95;;
10882;SDS011;5494;51.796;10.952;2024-01-16T07:51:13;5.22;;;1.67;;
10882;SDS011;5494;51.796;10.952;2024-01-16T07:53:42;3.85;;;1.48;;
10882;SDS011;5494;51.796;10.952;2024-01-16T07:56:10;5.47;;;1.63;;
10882;SDS011;5494;51.796;10.952;2024-01-16T07:58:39;3.45;;;1.80;;
10882;SDS011;5494;51.796;10.952;2024-01-16T08:01:07;4.32;;;1.92;;
10882;SDS011;5494;51.796;10.952;2024-01-16T08:03:35;5.53;;;1.67;;
10882;SDS011;5494;51.796;10.952;2024-01-16T08:06:03;5.88;;;1.65;;
10882;SDS011;5494;51.796;10.952;2024-01-16T08:08:33;2.88;;;1.20;;
10882;SDS011;5494;51.796;10.952;2024-01-16T08:11:01;5.80;;;1.85;;
10882;SDS011;5494;51.796;10.952;2024-01-16T08:13:30;4.25;;;2.03;;
10882;SDS011;5494;51.796;10.952;2024-01-16T08:15:58;3.17;;;1.60;;
10882;SDS011;5494;51.796;10.952;2024-01-16T08:18:26;3.90;;;1.55;;
10882;SDS011;5494;51.796;10.952;2024-01-16T08:20:54;3.58;;;1.88;;
10882;SDS011;5494;51.796;10.952;2024-01-16T08:23:22;2.00;;;1.63;;
10882;SDS011;5494;51.796;10.952;2024-01-16T08:25:52;5.10;;;1.60;;
10882;SDS011;5494;51.796;10.952;2024-01-16T08:28:20;4.40;;;1.50;;
10882;SDS011;5494;51.796;10.952;2024-01-16T08:30:50;3.42;;;2.10;;
10882;SDS011;5494;51.796;10.952;2024-01-16T08:33:19;4.57;;;2.00;;
10882;SDS011;5494;51.796;10.952;2024-01-16T08:35:59;3.83;;;1.80;;
10882;SDS011;5494;51.796;10.952;2024-01-16T08:38:27;6.20;;;1.83;;
10882;SDS011;5494;51.796;10.952;2024-01-16T08:40:57;6.32;;;2.00;;
10882;SDS011;5494;51.796;10.952;2024-01-16T08:43:25;4.70;;;1.90;;
10882;SDS011;5494;51.796;10.952;2024-01-16T08:45:52;5.03;;;1.83;;
10882;SDS011;5494;51.796;10.952;2024-01-16T08:48:21;4.97;;;2.37;;
10882;SDS011;5494;51.796;10.952;2024-01-16T08:50:50;4.77;;;2.00;;
10882;SDS011;5494;51.796;10.952;2024-01-16T08:53:18;5.80;;;1.60;;
10882;SDS011;5494;51.796;10.952;2024-01-16T08:55:46;5.43;;;1.70;;
10882;SDS011;5494;51.796;10.952;2024-01-16T08:58:15;3.23;;;1.70;;
10882;SDS011;5494;51.796;10.952;2024-01-16T09:00:43;3.87;;;1.40;;
10882;SDS011;5494;51.796;10.952;2024-01-16T09:03:12;2.47;;;1.43;;
10882;SDS011;5494;51.796;10.952;2024-01-16T09:05:40;3.10;;;1.60;;
10882;SDS011;5494;51.796;10.952;2024-01-16T09:08:09;3.30;;;1.70;;
10882;SDS011;5494;51.796;10.952;2024-01-16T09:10:39;7.10;;;2.40;;
10882;SDS011;5494;51.796;10.952;2024-01-16T09:13:07;4.63;;;2.00;;
10882;SDS011;5494;51.796;10.952;2024-01-16T09:15:36;3.70;;;2.43;;
10882;SDS011;5494;51.796;10.952;2024-01-16T09:18:04;5.43;;;2.70;;
10882;SDS011;5494;51.796;10.952;2024-01-16T09:20:33;7.37;;;2.50;;
10882;SDS011;5494;51.796;10.952;2024-01-16T09:23:01;5.50;;;2.80;;
10882;SDS011;5494;51.796;10.952;2024-01-16T09:25:29;6.03;;;3.23;;
10882;SDS011;5494;51.796;10.952;2024-01-16T09:27:57;7.17;;;3.20;;
10882;SDS011;5494;51.796;10.952;2024-01-16T09:30:25;6.67;;;4.33;;
10882;SDS011;5494;51.796;10.952;2024-01-16T09:32:54;6.00;;;3.50;;
10882;SDS011;5494;51.796;10.952;2024-01-16T09:35:22;4.63;;;2.80;;
10882;SDS011;5494;51.796;10.952;2024-01-16T09:37:50;5.80;;;3.03;;
10882;SDS011;5494;51.796;10.952;2024-01-16T09:40:18;4.97;;;2.90;;
10882;SDS011;5494;51.796;10.952;2024-01-16T09:42:47;6.30;;;2.70;;
10882;SDS011;5494;51.796;10.952;2024-01-16T09:45:17;4.83;;;2.73;;
10882;SDS011;5494;51.796;10.952;2024-01-16T09:47:49;5.30;;;3.20;;
10882;SDS011;5494;51.796;10.952;2024-01-16T09:50:20;6.77;;;3.60;;
10882;SDS011;5494;51.796;10.952;2024-01-16T09:52:49;4.37;;;2.63;;
10882;SDS011;5494;51.796;10.952;2024-01-16T09:55:17;4.53;;;2.23;;
10882;SDS011;5494;51.796;10.952;2024-01-16T09:57:47;4.90;;;2.60;;
10882;SDS011;5494;51.796;10.952;2024-01-16T10:00:20;5.80;;;2.70;;
10882;SDS011;5494;51.796;10.952;2024-01-16T10:02:51;5.30;;;2.53;;
10882;SDS011;5494;51.796;10.952;2024-01-16T10:05:26;3.80;;;2.60;;
10882;SDS011;5494;51.796;10.952;2024-01-16T10:07:56;4.57;;;2.80;;
10882;SDS011;5494;51.796;10.952;2024-01-16T10:10:25;4.77;;;2.53;;
10882;SDS011;5494;51.796;10.952;2024-01-16T10:13:12;5.37;;;2.63;;
10882;SDS011;5494;51.796;10.952;2024-01-16T10:15:42;4.90;;;2.90;;
10882;SDS011;5494;51.796;10.952;2024-01-16T10:18:21;6.70;;;3.37;;
10882;SDS011;5494;51.796;10.952;2024-01-16T10:20:53;5.10;;;2.70;;
10882;SDS011;5494;51.796;10.952;2024-01-16T10:23:24;5.63;;;2.73;;
10882;SDS011;5494;51.796;10.952;2024-01-16T10:26:06;6.40;;;2.47;;
10882;SDS011;5494;51.796;10.952;2024-01-16T10:28:36;5.93;;;3.20;;
10882;SDS011;5494;51.796;10.952;2024-01-16T10:31:06;8.00;;;3.10;;
10882;SDS011;5494;51.796;10.952;2024-01-16T10:33:37;6.50;;;2.67;;
10882;SDS011;5494;51.796;10.952;2024-01-16T10:36:11;8.73;;;3.00;;
10882;SDS011;5494;51.796;10.952;2024-01-16T10:38:43;7.70;;;3.13;;
10882;SDS011;5494;51.796;10.952;2024-01-16T10:41:13;4.00;;;2.87;;
10882;SDS011;5494;51.796;10.952;2024-01-16T10:43:44;5.53;;;2.60;;
10882;SDS011;5494;51.796;10.952;2024-01-16T10:46:12;5.20;;;2.90;;
10882;SDS011;5494;51.796;10.952;2024-01-16T10:48:42;6.37;;;2.70;;
10882;SDS011;5494;51.796;10.952;2024-01-16T10:51:14;7.07;;;2.90;;
10882;SDS011;5494;51.796;10.952;2024-01-16T10:53:43;3.13;;;2.53;;
10882;SDS011;5494;51.796;10.952;2024-01-16T10:56:13;5.60;;;2.90;;
10882;SDS011;5494;51.796;10.952;2024-01-16T10:58:44;5.00;;;3.07;;
10882;SDS011;5494;51.796;10.952;2024-01-16T11:01:22;6.40;;;3.20;;
10882;SDS011;5494;51.796;10.952;2024-01-16T11:03:51;5.70;;;2.70;;
10882;SDS011;5494;51.796;10.952;2024-01-16T11:06:24;5.03;;;2.73;;
10882;SDS011;5494;51.796;10.952;2024-01-16T11:08:54;5.03;;;2.80;;
10882;SDS011;5494;51.796;10.952;2024-01-16T11:11:26;6.00;;;2.87;;
10882;SDS011;5494;51.796;10.952;2024-01-16T11:13:56;6.83;;;2.93;;
10882;SDS011;5494;51.796;10.952;2024-01-16T11:16:26;5.07;;;3.13;;
10882;SDS011;5494;51.796;10.952;2024-01-16T11:18:56;4.63;;;2.60;;
10882;SDS011;5494;51.796;10.952;2024-01-16T11:21:45;6.43;;;3.07;;
10882;SDS011;5494;51.796;10.952;2024-01-16T11:24:15;4.43;;;2.93;;
10882;SDS011;5494;51.796;10.952;2024-01-16T11:26:44;5.97;;;2.93;;
10882;SDS011;5494;51.796;10.952;2024-01-16T11:32:03;6.40;;;3.20;;
10882;SDS011;5494;51.796;10.952;2024-01-16T11:34:52;5.63;;;3.57;;
10882;SDS011;5494;51.796;10.952;2024-01-16T11:37:27;7.00;;;3.57;;
10882;SDS011;5494;51.796;10.952;2024-01-16T11:42:53;6.70;;;3.87;;
10882;SDS011;5494;51.796;10.952;2024-01-16T11:48:18;5.43;;;4.00;;
10882;SDS011;5494;51.796;10.952;2024-01-16T11:50:47;6.20;;;3.70;;
10882;SDS011;5494;51.796;10.952;2024-01-16T11:53:32;6.00;;;4.10;;
10882;SDS011;5494;51.796;10.952;2024-01-16T11:56:10;7.47;;;4.03;;
10882;SDS011;5494;51.796;10.952;2024-01-16T11:59:27;7.83;;;4.17;;
10882;SDS011;5494;51.796;10.952;2024-01-16T12:02:28;7.90;;;3.77;;
10882;SDS011;5494;51.796;10.952;2024-01-16T12:05:17;6.67;;;3.70;;
10882;SDS011;5494;51.796;10.952;2024-01-16T12:07:45;7.63;;;4.70;;
10882;SDS011;5494;51.796;10.952;2024-01-16T12:10:17;7.03;;;3.70;;
10882;SDS011;5494;51.796;10.952;2024-01-16T12:12:47;7.10;;;3.60;;
10882;SDS011;5494;51.796;10.952;2024-01-16T12:15:16;6.17;;;3.00;;
10882;SDS011;5494;51.796;10.952;2024-01-16T12:17:55;7.67;;;3.20;;
10882;SDS011;5494;51.796;10.952;2024-01-16T12:20:27;5.20;;;2.70;;
10882;SDS011;5494;51.796;10.952;2024-01-16T12:22:59;4.43;;;2.30;;
10882;SDS011;5494;51.796;10.952;2024-01-16T12:25:31;3.50;;;2.53;;
10882;SDS011;5494;51.796;10.952;2024-01-16T12:28:20;3.40;;;2.40;;
10882;SDS011;5494;51.796;10.952;2024-01-16T12:30:58;3.10;;;2.30;;
10882;SDS011;5494;51.796;10.952;2024-01-16T12:33:30;3.63;;;2.90;;
10882;SDS011;5494;51.796;10.952;2024-01-16T12:36:01;4.43;;;3.30;;
10882;SDS011;5494;51.796;10.952;2024-01-16T12:38:32;6.07;;;3.37;;
10882;SDS011;5494;51.796;10.952;2024-01-16T12:41:03;7.10;;;3.10;;
10882;SDS011;5494;51.796;10.952;2024-01-16T12:43:36;3.50;;;2.80;;
10882;SDS011;5494;51.796;10.952;2024-01-16T12:46:05;3.67;;;2.80;;
10882;SDS011;5494;51.796;10.952;2024-01-16T12:48:33;6.20;;;3.27;;
10882;SDS011;5494;51.796;10.952;2024-01-16T12:51:02;4.50;;;2.80;;
10882;SDS011;5494;51.796;10.952;2024-01-16T12:53:33;5.60;;;3.50;;
10882;SDS011;5494;51.796;10.952;2024-01-16T12:56:05;5.17;;;2.90;;
10882;SDS011;5494;51.796;10.952;2024-01-16T12:58:34;4.60;;;3.33;;
10882;SDS011;5494;51.796;10.952;2024-01-16T13:01:23;4.80;;;2.93;;
10882;SDS011;5494;51.796;10.952;2024-01-16T13:04:05;6.73;;;3.50;;
10882;SDS011;5494;51.796;10.952;2024-01-16T13:06:34;6.00;;;3.40;;
10882;SDS011;5494;51.796;10.952;2024-01-16T13:09:06;6.77;;;3.00;;
10882;SDS011;5494;51.796;10.952;2024-01-16T13:11:46;5.77;;;3.40;;
10882;SDS011;5494;51.796;10.952;2024-01-16T13:14:16;4.43;;;3.37;;
10882;SDS011;5494;51.796;10.952;2024-01-16T13:16:47;5.97;;;3.60;;
10882;SDS011;5494;51.796;10.952;2024-01-16T13:19:16;6.33;;;3.33;;
10882;SDS011;5494;51.796;10.952;2024-01-16T13:21:46;4.97;;;3.07;;
10882;SDS011;5494;51.796;10.952;2024-01-16T13:24:14;4.47;;;3.23;;
10882;SDS011;5494;51.796;10.952;2024-01-16T13:26:43;4.90;;;3.37;;
10882;SDS011;5494;51.796;10.952;2024-01-16T13:29:13;4.10;;;3.20;;
10882;SDS011;5494;51.796;10.952;2024-01-16T13:31:42;4.67;;;3.43;;
10882;SDS011;5494;51.796;10.952;2024-01-16T13:34:10;3.00;;;2.67;;
10882;SDS011;5494;51.796;10.952;2024-01-16T13:36:38;5.75;;;3.28;;
10882;SDS011;5494;51.796;10.952;2024-01-16T13:39:28;6.20;;;3.43;;
10882;SDS011;5494;51.796;10.952;2024-01-16T13:42:00;7.73;;;3.67;;
10882;SDS011;5494;51.796;10.952;2024-01-16T13:44:31;7.87;;;3.87;;
10882;SDS011;5494;51.796;10.952;2024-01-16T13:47:00;6.05;;;3.22;;
10882;SDS011;5494;51.796;10.952;2024-01-16T13:49:37;8.32;;;3.40;;
10882;SDS011;5494;51.796;10.952;2024-01-16T13:52:07;9.25;;;4.03;;
10882;SDS011;5494;51.796;10.952;2024-01-16T13:54:36;5.10;;;3.13;;
10882;SDS011;5494;51.796;10.952;2024-01-16T13:57:07;7.10;;;2.95;;
10882;SDS011;5494;51.796;10.952;2024-01-16T13:59:38;4.30;;;2.87;;
10882;SDS011;5494;51.796;10.952;2024-01-16T14:02:07;4.90;;;3.23;;
10882;SDS011;5494;51.796;10.952;2024-01-16T14:04:36;7.05;;;3.03;;
10882;SDS011;5494;51.796;10.952;2024-01-16T14:07:04;6.85;;;3.00;;
10882;SDS011;5494;51.796;10.952;2024-01-16T14:09:39;5.70;;;3.00;;
10882;SDS011;5494;51.796;10.952;2024-01-16T14:12:12;7.60;;;5.10;;
10882;SDS011;5494;51.796;10.952;2024-01-16T14:14:41;7.83;;;2.90;;
10882;SDS011;5494;51.796;10.952;2024-01-16T14:17:09;6.00;;;2.90;;
10882;SDS011;5494;51.796;10.952;2024-01-16T14:19:37;6.07;;;3.00;;
10882;SDS011;5494;51.796;10.952;2024-01-16T14:22:05;5.35;;;2.88;;
10882;SDS011;5494;51.796;10.952;2024-01-16T14:24:34;6.82;;;2.70;;
10882;SDS011;5494;51.796;10.952;2024-01-16T14:27:04;8.35;;;2.67;;
10882;SDS011;5494;51.796;10.952;2024-01-16T14:29:34;6.47;;;2.65;;
10882;SDS011;5494;51.796;10.952;2024-01-16T14:32:06;5.15;;;2.50;;
10882;SDS011;5494;51.796;10.952;2024-01-16T14:34:34;6.70;;;2.20;;
10882;SDS011;5494;51.796;10.952;2024-01-16T14:37:03;7.03;;;2.80;;
10882;SDS011;5494;51.796;10.952;2024-01-16T14:39:31;6.13;;;2.13;;
10882;SDS011;5494;51.796;10.952;2024-01-16T14:42:01;4.55;;;2.90;;
10882;SDS011;5494;51.796;10.952;2024-01-16T14:44:29;4.70;;;2.08;;
10882;SDS011;5494;51.796;10.952;2024-01-16T14:46:59;5.40;;;2.40;;
10882;SDS011;5494;51.796;10.952;2024-01-16T14:49:26;5.32;;;2.13;;
10882;SDS011;5494;51.796;10.952;2024-01-16T14:51:59;5.18;;;2.35;;
10882;SDS011;5494;51.796;10.952;2024-01-16T14:54:28;7.28;;;2.75;;
10882;SDS011;5494;51.796;10.952;2024-01-16T14:56:56;5.07;;;3.03;;
10882;SDS011;5494;51.796;10.952;2024-01-16T14:59:24;4.47;;;2.80;;
10882;SDS011;5494;51.796;10.952;2024-01-16T15:01:52;6.10;;;3.55;;
10882;SDS011;5494;51.796;10.952;2024-01-16T15:04:22;5.38;;;2.63;;
10882;SDS011;5494;51.796;10.952;2024-01-16T15:06:50;6.03;;;2.33;;
10882;SDS011;5494;51.796;10.952;2024-01-16T15:09:19;6.03;;;2.90;;
10882;SDS011;5494;51.796;10.952;2024-01-16T15:11:47;12.07;;;3.85;;
10882;SDS011;5494;51.796;10.952;2024-01-16T15:14:15;8.93;;;3.42;;